sensor_id;sensor_type;location;lat;lon;timestamp;temperature;humidity
13992;DHT22;7070;53.586;9.692;2023-03-23T00:02:22;11.60;85.60
13992;DHT22;7070;53.586;9.692;2023-03-23T00:04:49;11.70;85.80
13992;DHT22;7070;53.586;9.692;2023-03-23T00:07:17;11.60;85.80
13992;DHT22;7070;53.586;9.692;2023-03-23T00:09:53;11.60;85.80
13992;DHT22;7070;53.586;9.692;2023-03-23T00:12:23;11.60;86.00
13992;DHT22;7070;53.586;9.692;2023-03-23T00:14:54;11.60;86.00
13992;DHT22;7070;53.586;9.692;2023-03-23T00:17:21;11.60;86.80
13992;DHT22;7070;53.586;9.692;2023-03-23T00:19:48;11.50;86.10
13992;DHT22;7070;53.586;9.692;2023-03-23T00:22:17;11.60;86.20
13992;DHT22;7070;53.586;9.692;2023-03-23T00:24:46;11.60;86.30
13992;DHT22;7070;53.586;9.692;2023-03-23T00:27:13;11.50;86.40
13992;DHT22;7070;53.586;9.692;2023-03-23T00:29:41;11.50;86.50
13992;DHT22;7070;53.586;9.692;2023-03-23T00:32:10;11.50;86.70
13992;DHT22;7070;53.586;9.692;2023-03-23T00:34:40;11.50;87.50
13992;DHT22;7070;53.586;9.692;2023-03-23T00:37:09;11.60;87.00
13992;DHT22;7070;53.586;9.692;2023-03-23T00:39:38;11.50;87.00
13992;DHT22;7070;53.586;9.692;2023-03-23T00:42:11;11.50;87.00
13992;DHT22;7070;53.586;9.692;2023-03-23T00:44:39;11.60;87.10
13992;DHT22;7070;53.586;9.692;2023-03-23T00:47:06;11.50;87.10
13992;DHT22;7070;53.586;9.692;2023-03-23T00:49:34;11.50;87.10
13992;DHT22;7070;53.586;9.692;2023-03-23T00:52:02;11.50;87.10
13992;DHT22;7070;53.586;9.692;2023-03-23T00:54:30;11.50;87.10
13992;DHT22;7070;53.586;9.692;2023-03-23T00:56:58;11.50;87.20
13992;DHT22;7070;53.586;9.692;2023-03-23T00:59:25;11.50;87.90
13992;DHT22;7070;53.586;9.692;2023-03-23T01:01:52;11.50;87.30
13992;DHT22;7070;53.586;9.692;2023-03-23T01:04:19;11.50;87.40
13992;DHT22;7070;53.586;9.692;2023-03-23T01:06:49;11.50;87.50
13992;DHT22;7070;53.586;9.692;2023-03-23T01:09:16;11.50;87.50
13992;DHT22;7070;53.586;9.692;2023-03-23T01:11:45;11.50;87.60
13992;DHT22;7070;53.586;9.692;2023-03-23T01:14:15;11.50;87.70
13992;DHT22;7070;53.586;9.692;2023-03-23T01:16:43;11.50;87.70
13992;DHT22;7070;53.586;9.692;2023-03-23T01:19:10;11.60;87.80
13992;DHT22;7070;53.586;9.692;2023-03-23T01:21:37;11.50;88.40
13992;DHT22;7070;53.586;9.692;2023-03-23T01:24:04;11.60;87.90
13992;DHT22;7070;53.586;9.692;2023-03-23T01:26:31;11.60;87.90
13992;DHT22;7070;53.586;9.692;2023-03-23T01:28:58;11.60;87.90
13992;DHT22;7070;53.586;9.692;2023-03-23T01:31:27;11.60;87.90
13992;DHT22;7070;53.586;9.692;2023-03-23T01:33:54;11.70;88.00
13992;DHT22;7070;53.586;9.692;2023-03-23T01:36:23;11.60;87.90
13992;DHT22;7070;53.586;9.692;2023-03-23T01:38:52;11.60;88.00
13992;DHT22;7070;53.586;9.692;2023-03-23T01:41:19;11.70;88.10
13992;DHT22;7070;53.586;9.692;2023-03-23T01:43:57;11.70;88.10
13992;DHT22;7070;53.586;9.692;2023-03-23T01:46:29;11.60;87.90
13992;DHT22;7070;53.586;9.692;2023-03-23T01:48:58;11.70;88.10
13992;DHT22;7070;53.586;9.692;2023-03-23T01:51:27;11.70;88.10
13992;DHT22;7070;53.586;9.692;2023-03-23T01:53:57;11.70;88.00
13992;DHT22;7070;53.586;9.692;2023-03-23T01:56:28;11.70;88.00
13992;DHT22;7070;53.586;9.692;2023-03-23T01:58:58;11.70;88.20
13992;DHT22;7070;53.586;9.692;2023-03-23T02:01:27;11.70;88.20
13992;DHT22;7070;53.586;9.692;2023-03-23T02:03:55;11.80;88.20
13992;DHT22;7070;53.586;9.692;2023-03-23T02:06:23;11.70;88.10
13992;DHT22;7070;53.586;9.692;2023-03-23T02:08:51;11.80;88.30
13992;DHT22;7070;53.586;9.692;2023-03-23T02:11:20;11.70;88.20
13992;DHT22;7070;53.586;9.692;2023-03-23T02:13:48;11.70;88.20
13992;DHT22;7070;53.586;9.692;2023-03-23T02:16:21;11.80;88.30
13992;DHT22;7070;53.586;9.692;2023-03-23T02:18:58;11.80;89.00
13992;DHT22;7070;53.586;9.692;2023-03-23T02:21:52;11.70;88.30
13992;DHT22;7070;53.586;9.692;2023-03-23T02:24:47;11.70;88.30
13992;DHT22;7070;53.586;9.692;2023-03-23T02:27:28;11.70;88.40
13992;DHT22;7070;53.586;9.692;2023-03-23T02:30:31;11.70;88.40
13992;DHT22;7070;53.586;9.692;2023-03-23T02:33:29;11.70;88.50
13992;DHT22;7070;53.586;9.692;2023-03-23T02:36:00;11.70;88.60
13992;DHT22;7070;53.586;9.692;2023-03-23T02:38:31;11.70;88.50
13992;DHT22;7070;53.586;9.692;2023-03-23T02:41:00;11.80;89.40
13992;DHT22;7070;53.586;9.692;2023-03-23T02:43:33;11.70;88.60
13992;DHT22;7070;53.586;9.692;2023-03-23T02:46:01;11.80;88.70
13992;DHT22;7070;53.586;9.692;2023-03-23T02:48:33;11.80;88.70
13992;DHT22;7070;53.586;9.692;2023-03-23T02:51:02;11.80;88.70
13992;DHT22;7070;53.586;9.692;2023-03-23T02:53:30;11.80;88.70
13992;DHT22;7070;53.586;9.692;2023-03-23T02:56:00;11.90;88.80
13992;DHT22;7070;53.586;9.692;2023-03-23T02:58:28;11.80;88.60
13992;DHT22;7070;53.586;9.692;2023-03-23T03:00:55;11.90;88.50
13992;DHT22;7070;53.586;9.692;2023-03-23T03:03:27;11.80;88.40
13992;DHT22;7070;53.586;9.692;2023-03-23T03:06:02;11.80;88.40
13992;DHT22;7070;53.586;9.692;2023-03-23T03:08:38;11.80;88.40
13992;DHT22;7070;53.586;9.692;2023-03-23T03:11:12;11.80;88.50
13992;DHT22;7070;53.586;9.692;2023-03-23T03:13:46;11.80;88.40
13992;DHT22;7070;53.586;9.692;2023-03-23T03:16:21;11.80;88.40
13992;DHT22;7070;53.586;9.692;2023-03-23T03:18:54;11.80;88.50
13992;DHT22;7070;53.586;9.692;2023-03-23T03:21:27;11.90;88.60
13992;DHT22;7070;53.586;9.692;2023-03-23T03:23:56;11.70;89.20
13992;DHT22;7070;53.586;9.692;2023-03-23T03:26:27;11.70;88.40
13992;DHT22;7070;53.586;9.692;2023-03-23T03:28:56;11.70;88.40
13992;DHT22;7070;53.586;9.692;2023-03-23T03:31:27;11.70;88.50
13992;DHT22;7070;53.586;9.692;2023-03-23T03:33:55;11.70;88.50
13992;DHT22;7070;53.586;9.692;2023-03-23T03:36:27;11.60;88.50
13992;DHT22;7070;53.586;9.692;2023-03-23T03:39:01;11.70;88.70
13992;DHT22;7070;53.586;9.692;2023-03-23T03:41:29;11.70;88.80
13992;DHT22;7070;53.586;9.692;2023-03-23T03:43:57;11.80;89.10
13992;DHT22;7070;53.586;9.692;2023-03-23T03:46:24;11.70;89.00
13992;DHT22;7070;53.586;9.692;2023-03-23T03:48:53;11.70;88.90
13992;DHT22;7070;53.586;9.692;2023-03-23T03:51:20;11.80;88.90
13992;DHT22;7070;53.586;9.692;2023-03-23T03:53:48;11.80;88.80
13992;DHT22;7070;53.586;9.692;2023-03-23T03:56:15;11.80;88.80
13992;DHT22;7070;53.586;9.692;2023-03-23T03:58:42;11.80;88.80
13992;DHT22;7070;53.586;9.692;2023-03-23T04:01:09;11.80;88.70
13992;DHT22;7070;53.586;9.692;2023-03-23T04:03:37;11.80;88.70
13992;DHT22;7070;53.586;9.692;2023-03-23T04:06:04;11.90;88.80
13992;DHT22;7070;53.586;9.692;2023-03-23T04:08:31;11.90;88.80
13992;DHT22;7070;53.586;9.692;2023-03-23T04:11:00;11.90;88.80
13992;DHT22;7070;53.586;9.692;2023-03-23T04:13:27;11.90;88.70
13992;DHT22;7070;53.586;9.692;2023-03-23T04:15:53;11.90;88.60
13992;DHT22;7070;53.586;9.692;2023-03-23T04:18:20;11.90;88.50
13992;DHT22;7070;53.586;9.692;2023-03-23T04:20:48;12.00;88.50
13992;DHT22;7070;53.586;9.692;2023-03-23T04:23:16;12.00;88.30
13992;DHT22;7070;53.586;9.692;2023-03-23T04:25:45;11.90;88.20
13992;DHT22;7070;53.586;9.692;2023-03-23T04:28:13;11.80;88.10
13992;DHT22;7070;53.586;9.692;2023-03-23T04:30:42;11.80;88.10
13992;DHT22;7070;53.586;9.692;2023-03-23T04:33:10;11.90;88.20
13992;DHT22;7070;53.586;9.692;2023-03-23T04:35:40;11.80;88.90
13992;DHT22;7070;53.586;9.692;2023-03-23T04:38:07;11.80;89.00
13992;DHT22;7070;53.586;9.692;2023-03-23T04:40:36;11.80;88.40
13992;DHT22;7070;53.586;9.692;2023-03-23T04:43:03;11.70;88.30
13992;DHT22;7070;53.586;9.692;2023-03-23T04:45:33;11.80;89.10
13992;DHT22;7070;53.586;9.692;2023-03-23T04:48:04;11.80;88.40
13992;DHT22;7070;53.586;9.692;2023-03-23T04:50:32;11.70;88.20
13992;DHT22;7070;53.586;9.692;2023-03-23T04:53:01;11.70;88.20
13992;DHT22;7070;53.586;9.692;2023-03-23T04:55:30;11.70;88.00
13992;DHT22;7070;53.586;9.692;2023-03-23T04:57:57;11.70;88.00
13992;DHT22;7070;53.586;9.692;2023-03-23T05:00:25;11.70;88.00
13992;DHT22;7070;53.586;9.692;2023-03-23T05:02:54;11.60;87.90
13992;DHT22;7070;53.586;9.692;2023-03-23T05:05:23;11.60;88.00
13992;DHT22;7070;53.586;9.692;2023-03-23T05:07:50;11.60;88.20
13992;DHT22;7070;53.586;9.692;2023-03-23T05:10:17;11.50;88.20
13992;DHT22;7070;53.586;9.692;2023-03-23T05:12:44;11.50;88.30
13992;DHT22;7070;53.586;9.692;2023-03-23T05:15:13;11.50;88.30
13992;DHT22;7070;53.586;9.692;2023-03-23T05:17:40;11.50;88.40
13992;DHT22;7070;53.586;9.692;2023-03-23T05:20:13;11.60;88.40
13992;DHT22;7070;53.586;9.692;2023-03-23T05:22:44;11.50;88.20
13992;DHT22;7070;53.586;9.692;2023-03-23T05:25:13;11.40;88.20
13992;DHT22;7070;53.586;9.692;2023-03-23T05:27:40;11.50;88.30
13992;DHT22;7070;53.586;9.692;2023-03-23T05:30:09;11.40;88.20
13992;DHT22;7070;53.586;9.692;2023-03-23T05:32:37;11.40;88.30
13992;DHT22;7070;53.586;9.692;2023-03-23T05:35:04;11.40;88.30
13992;DHT22;7070;53.586;9.692;2023-03-23T05:37:32;11.40;88.30
13992;DHT22;7070;53.586;9.692;2023-03-23T05:40:00;11.40;88.40
13992;DHT22;7070;53.586;9.692;2023-03-23T05:42:31;11.40;88.60
13992;DHT22;7070;53.586;9.692;2023-03-23T05:44:58;11.30;88.50
13992;DHT22;7070;53.586;9.692;2023-03-23T05:47:26;11.40;88.50
13992;DHT22;7070;53.586;9.692;2023-03-23T05:49:53;11.40;88.40
13992;DHT22;7070;53.586;9.692;2023-03-23T05:52:20;11.40;88.40
13992;DHT22;7070;53.586;9.692;2023-03-23T05:54:51;11.30;88.20
13992;DHT22;7070;53.586;9.692;2023-03-23T05:57:18;11.30;88.20
13992;DHT22;7070;53.586;9.692;2023-03-23T05:59:47;11.30;88.40
13992;DHT22;7070;53.586;9.692;2023-03-23T06:02:14;11.20;88.40
13992;DHT22;7070;53.586;9.692;2023-03-23T06:04:42;11.30;88.40
13992;DHT22;7070;53.586;9.692;2023-03-23T06:07:08;11.20;88.20
13992;DHT22;7070;53.586;9.692;2023-03-23T06:09:38;11.20;88.00
13992;DHT22;7070;53.586;9.692;2023-03-23T06:12:07;11.10;87.80
13992;DHT22;7070;53.586;9.692;2023-03-23T06:14:35;11.20;87.90
13992;DHT22;7070;53.586;9.692;2023-03-23T06:17:02;11.00;87.70
13992;DHT22;7070;53.586;9.692;2023-03-23T06:19:29;11.00;87.70
13992;DHT22;7070;53.586;9.692;2023-03-23T06:21:55;11.00;87.70
13992;DHT22;7070;53.586;9.692;2023-03-23T06:24:22;10.90;87.90
13992;DHT22;7070;53.586;9.692;2023-03-23T06:26:49;10.90;88.30
13992;DHT22;7070;53.586;9.692;2023-03-23T06:29:17;10.90;88.60
13992;DHT22;7070;53.586;9.692;2023-03-23T06:31:47;11.00;89.00
13992;DHT22;7070;53.586;9.692;2023-03-23T06:34:15;11.00;89.10
13992;DHT22;7070;53.586;9.692;2023-03-23T06:36:42;11.10;89.30
13992;DHT22;7070;53.586;9.692;2023-03-23T06:39:10;11.20;90.10
13992;DHT22;7070;53.586;9.692;2023-03-23T06:41:38;11.40;89.70
13992;DHT22;7070;53.586;9.692;2023-03-23T06:44:05;11.40;90.10
13992;DHT22;7070;53.586;9.692;2023-03-23T06:46:35;11.50;89.70
13992;DHT22;7070;53.586;9.692;2023-03-23T06:49:02;11.70;89.70
13992;DHT22;7070;53.586;9.692;2023-03-23T06:51:29;11.80;89.80
13992;DHT22;7070;53.586;9.692;2023-03-23T06:53:56;11.90;89.70
13992;DHT22;7070;53.586;9.692;2023-03-23T06:56:23;12.00;89.50
13992;DHT22;7070;53.586;9.692;2023-03-23T06:58:50;12.00;89.40
13992;DHT22;7070;53.586;9.692;2023-03-23T07:01:17;12.10;89.50
13992;DHT22;7070;53.586;9.692;2023-03-23T07:03:45;12.20;90.10
13992;DHT22;7070;53.586;9.692;2023-03-23T07:06:12;12.40;89.60
13992;DHT22;7070;53.586;9.692;2023-03-23T07:08:39;12.40;89.50
13992;DHT22;7070;53.586;9.692;2023-03-23T07:11:06;12.40;89.20
13992;DHT22;7070;53.586;9.692;2023-03-23T07:13:33;12.50;89.00
13992;DHT22;7070;53.586;9.692;2023-03-23T07:16:00;12.50;88.90
13992;DHT22;7070;53.586;9.692;2023-03-23T07:18:27;12.60;88.80
13992;DHT22;7070;53.586;9.692;2023-03-23T07:20:55;12.60;88.60
13992;DHT22;7070;53.586;9.692;2023-03-23T07:23:22;12.70;88.70
13992;DHT22;7070;53.586;9.692;2023-03-23T07:25:49;12.70;88.60
13992;DHT22;7070;53.586;9.692;2023-03-23T07:28:16;12.80;88.40
13992;DHT22;7070;53.586;9.692;2023-03-23T07:30:44;12.80;88.30
13992;DHT22;7070;53.586;9.692;2023-03-23T07:33:11;12.80;88.20
13992;DHT22;7070;53.586;9.692;2023-03-23T07:35:38;12.80;87.80
13992;DHT22;7070;53.586;9.692;2023-03-23T07:38:06;12.80;87.80
13992;DHT22;7070;53.586;9.692;2023-03-23T07:40:34;12.80;87.60
13992;DHT22;7070;53.586;9.692;2023-03-23T07:43:02;12.70;87.50
13992;DHT22;7070;53.586;9.692;2023-03-23T07:45:29;12.70;87.50
13992;DHT22;7070;53.586;9.692;2023-03-23T07:47:57;12.70;87.60
13992;DHT22;7070;53.586;9.692;2023-03-23T07:50:24;12.70;87.60
13992;DHT22;7070;53.586;9.692;2023-03-23T07:52:54;12.60;87.50
13992;DHT22;7070;53.586;9.692;2023-03-23T07:55:22;12.50;87.10
13992;DHT22;7070;53.586;9.692;2023-03-23T07:57:50;12.30;86.90
13992;DHT22;7070;53.586;9.692;2023-03-23T08:00:18;12.10;86.90
13992;DHT22;7070;53.586;9.692;2023-03-23T08:02:46;11.90;86.90
13992;DHT22;7070;53.586;9.692;2023-03-23T08:05:14;11.80;87.10
13992;DHT22;7070;53.586;9.692;2023-03-23T08:07:42;11.70;87.60
13992;DHT22;7070;53.586;9.692;2023-03-23T08:10:10;11.50;87.70
13992;DHT22;7070;53.586;9.692;2023-03-23T08:12:39;11.40;88.10
13992;DHT22;7070;53.586;9.692;2023-03-23T08:15:08;11.40;88.40
13992;DHT22;7070;53.586;9.692;2023-03-23T08:17:38;11.30;88.60
13992;DHT22;7070;53.586;9.692;2023-03-23T08:20:07;11.30;88.90
13992;DHT22;7070;53.586;9.692;2023-03-23T08:22:36;11.30;89.10
13992;DHT22;7070;53.586;9.692;2023-03-23T08:25:04;11.30;89.30
13992;DHT22;7070;53.586;9.692;2023-03-23T08:27:31;11.30;89.40
13992;DHT22;7070;53.586;9.692;2023-03-23T08:30:00;11.40;89.50
13992;DHT22;7070;53.586;9.692;2023-03-23T08:32:27;11.30;89.50
13992;DHT22;7070;53.586;9.692;2023-03-23T08:34:53;11.40;90.00
13992;DHT22;7070;53.586;9.692;2023-03-23T08:37:21;11.50;90.00
13992;DHT22;7070;53.586;9.692;2023-03-23T08:39:51;11.50;90.00
13992;DHT22;7070;53.586;9.692;2023-03-23T08:42:18;11.50;90.00
13992;DHT22;7070;53.586;9.692;2023-03-23T08:44:45;11.60;90.10
13992;DHT22;7070;53.586;9.692;2023-03-23T08:47:14;11.60;90.10
13992;DHT22;7070;53.586;9.692;2023-03-23T08:49:41;11.70;90.10
13992;DHT22;7070;53.586;9.692;2023-03-23T08:52:08;11.70;90.10
13992;DHT22;7070;53.586;9.692;2023-03-23T08:54:35;11.80;90.20
13992;DHT22;7070;53.586;9.692;2023-03-23T08:57:03;11.90;90.20
13992;DHT22;7070;53.586;9.692;2023-03-23T08:59:30;11.90;90.20
13992;DHT22;7070;53.586;9.692;2023-03-23T09:01:57;12.00;90.20
13992;DHT22;7070;53.586;9.692;2023-03-23T09:04:25;12.00;90.10
13992;DHT22;7070;53.586;9.692;2023-03-23T09:06:55;12.10;90.10
13992;DHT22;7070;53.586;9.692;2023-03-23T09:09:22;12.10;90.00
13992;DHT22;7070;53.586;9.692;2023-03-23T09:11:49;12.10;89.90
13992;DHT22;7070;53.586;9.692;2023-03-23T09:14:16;12.10;90.00
13992;DHT22;7070;53.586;9.692;2023-03-23T09:16:43;12.10;90.10
13992;DHT22;7070;53.586;9.692;2023-03-23T09:19:10;12.10;90.20
13992;DHT22;7070;53.586;9.692;2023-03-23T09:21:39;12.10;90.10
13992;DHT22;7070;53.586;9.692;2023-03-23T09:24:06;12.30;90.30
13992;DHT22;7070;53.586;9.692;2023-03-23T09:26:33;12.40;90.30
13992;DHT22;7070;53.586;9.692;2023-03-23T09:29:00;12.50;90.20
13992;DHT22;7070;53.586;9.692;2023-03-23T09:31:27;12.50;90.20
13992;DHT22;7070;53.586;9.692;2023-03-23T09:33:54;12.60;90.10
13992;DHT22;7070;53.586;9.692;2023-03-23T09:36:22;12.70;90.20
13992;DHT22;7070;53.586;9.692;2023-03-23T09:38:52;12.70;90.20
13992;DHT22;7070;53.586;9.692;2023-03-23T09:41:38;12.80;90.30
13992;DHT22;7070;53.586;9.692;2023-03-23T09:44:15;12.90;90.30
13992;DHT22;7070;53.586;9.692;2023-03-23T09:46:51;13.10;90.40
13992;DHT22;7070;53.586;9.692;2023-03-23T09:49:21;13.20;90.40
13992;DHT22;7070;53.586;9.692;2023-03-23T09:51:54;13.40;90.50
13992;DHT22;7070;53.586;9.692;2023-03-23T09:54:26;13.50;90.50
13992;DHT22;7070;53.586;9.692;2023-03-23T09:56:55;13.70;90.60
13992;DHT22;7070;53.586;9.692;2023-03-23T09:59:26;13.90;90.60
13992;DHT22;7070;53.586;9.692;2023-03-23T10:01:57;14.10;90.50
13992;DHT22;7070;53.586;9.692;2023-03-23T10:04:32;14.20;90.50
13992;DHT22;7070;53.586;9.692;2023-03-23T10:07:08;14.50;90.60
13992;DHT22;7070;53.586;9.692;2023-03-23T10:09:37;14.60;90.50
13992;DHT22;7070;53.586;9.692;2023-03-23T10:12:12;14.80;90.50
13992;DHT22;7070;53.586;9.692;2023-03-23T10:14:50;15.00;90.30
13992;DHT22;7070;53.586;9.692;2023-03-23T10:17:21;15.10;90.20
13992;DHT22;7070;53.586;9.692;2023-03-23T10:19:52;15.30;90.10
13992;DHT22;7070;53.586;9.692;2023-03-23T10:22:25;15.40;89.90
13992;DHT22;7070;53.586;9.692;2023-03-23T10:25:01;15.60;89.60
13992;DHT22;7070;53.586;9.692;2023-03-23T10:27:34;15.70;89.50
13992;DHT22;7070;53.586;9.692;2023-03-23T10:30:14;15.80;89.20
13992;DHT22;7070;53.586;9.692;2023-03-23T10:32:44;15.90;88.80
13992;DHT22;7070;53.586;9.692;2023-03-23T10:35:17;16.00;88.30
13992;DHT22;7070;53.586;9.692;2023-03-23T10:37:48;16.10;87.80
13992;DHT22;7070;53.586;9.692;2023-03-23T10:40:20;16.10;87.30
13992;DHT22;7070;53.586;9.692;2023-03-23T10:42:50;16.10;87.00
13992;DHT22;7070;53.586;9.692;2023-03-23T10:45:19;16.10;86.60
13992;DHT22;7070;53.586;9.692;2023-03-23T10:47:51;16.10;86.20
13992;DHT22;7070;53.586;9.692;2023-03-23T10:50:23;16.20;86.30
13992;DHT22;7070;53.586;9.692;2023-03-23T10:52:52;16.20;86.00
13992;DHT22;7070;53.586;9.692;2023-03-23T10:55:23;16.10;85.70
13992;DHT22;7070;53.586;9.692;2023-03-23T10:58:00;16.20;85.70
13992;DHT22;7070;53.586;9.692;2023-03-23T11:00:28;16.20;85.50
13992;DHT22;7070;53.586;9.692;2023-03-23T11:03:01;16.30;85.10
13992;DHT22;7070;53.586;9.692;2023-03-23T11:05:34;16.30;85.00
13992;DHT22;7070;53.586;9.692;2023-03-23T11:08:03;16.40;84.70
13992;DHT22;7070;53.586;9.692;2023-03-23T11:10:40;16.40;84.00
13992;DHT22;7070;53.586;9.692;2023-03-23T11:13:12;16.50;84.00
13992;DHT22;7070;53.586;9.692;2023-03-23T11:15:41;16.50;83.90
13992;DHT22;7070;53.586;9.692;2023-03-23T11:18:10;16.50;83.40
13992;DHT22;7070;53.586;9.692;2023-03-23T11:20:40;16.60;83.10
13992;DHT22;7070;53.586;9.692;2023-03-23T11:23:10;16.60;82.60
13992;DHT22;7070;53.586;9.692;2023-03-23T11:25:57;16.70;82.30
13992;DHT22;7070;53.586;9.692;2023-03-23T11:28:28;16.70;82.30
13992;DHT22;7070;53.586;9.692;2023-03-23T11:30:57;16.70;81.90
13992;DHT22;7070;53.586;9.692;2023-03-23T11:33:28;16.70;82.40
13992;DHT22;7070;53.586;9.692;2023-03-23T11:35:55;16.70;81.50
13992;DHT22;7070;53.586;9.692;2023-03-23T11:38:23;16.80;81.60
13992;DHT22;7070;53.586;9.692;2023-03-23T11:40:55;16.80;81.40
13992;DHT22;7070;53.586;9.692;2023-03-23T11:43:23;16.90;81.30
13992;DHT22;7070;53.586;9.692;2023-03-23T11:45:59;16.90;81.00
13992;DHT22;7070;53.586;9.692;2023-03-23T11:48:34;16.90;81.00
13992;DHT22;7070;53.586;9.692;2023-03-23T11:51:05;17.00;80.90
13992;DHT22;7070;53.586;9.692;2023-03-23T11:53:42;17.00;80.70
13992;DHT22;7070;53.586;9.692;2023-03-23T11:56:18;17.10;80.70
13992;DHT22;7070;53.586;9.692;2023-03-23T11:58:46;17.10;80.40
13992;DHT22;7070;53.586;9.692;2023-03-23T12:01:21;17.10;80.10
13992;DHT22;7070;53.586;9.692;2023-03-23T12:04:04;17.00;79.90
13992;DHT22;7070;53.586;9.692;2023-03-23T12:06:43;16.90;79.70
13992;DHT22;7070;53.586;9.692;2023-03-23T12:09:25;16.80;80.50
13992;DHT22;7070;53.586;9.692;2023-03-23T12:12:11;16.70;80.10
13992;DHT22;7070;53.586;9.692;2023-03-23T12:14:45;16.50;80.00
13992;DHT22;7070;53.586;9.692;2023-03-23T12:17:24;16.50;80.10
13992;DHT22;7070;53.586;9.692;2023-03-23T12:20:04;16.40;80.20
13992;DHT22;7070;53.586;9.692;2023-03-23T12:22:44;16.40;80.40
13992;DHT22;7070;53.586;9.692;2023-03-23T12:25:32;16.30;80.40
13992;DHT22;7070;53.586;9.692;2023-03-23T12:28:09;16.30;80.60
13992;DHT22;7070;53.586;9.692;2023-03-23T12:30:42;16.30;80.90
13992;DHT22;7070;53.586;9.692;2023-03-23T12:33:27;16.40;81.10
13992;DHT22;7070;53.586;9.692;2023-03-23T12:36:06;16.40;81.20
13992;DHT22;7070;53.586;9.692;2023-03-23T12:38:57;16.60;81.20
13992;DHT22;7070;53.586;9.692;2023-03-23T12:41:31;16.60;80.90
13992;DHT22;7070;53.586;9.692;2023-03-23T12:44:03;16.60;80.40
13992;DHT22;7070;53.586;9.692;2023-03-23T12:46:49;16.50;80.00
13992;DHT22;7070;53.586;9.692;2023-03-23T12:49:21;16.50;80.10
13992;DHT22;7070;53.586;9.692;2023-03-23T12:51:57;16.40;80.30
13992;DHT22;7070;53.586;9.692;2023-03-23T12:54:29;16.40;80.80
13992;DHT22;7070;53.586;9.692;2023-03-23T12:57:02;16.50;81.20
13992;DHT22;7070;53.586;9.692;2023-03-23T12:59:36;16.60;81.50
13992;DHT22;7070;53.586;9.692;2023-03-23T13:02:13;16.70;81.50
13992;DHT22;7070;53.586;9.692;2023-03-23T13:04:45;16.80;81.50
13992;DHT22;7070;53.586;9.692;2023-03-23T13:07:14;17.00;81.20
13992;DHT22;7070;53.586;9.692;2023-03-23T13:09:48;17.10;80.70
13992;DHT22;7070;53.586;9.692;2023-03-23T13:12:17;17.20;80.50
13992;DHT22;7070;53.586;9.692;2023-03-23T13:14:54;17.20;80.00
13992;DHT22;7070;53.586;9.692;2023-03-23T13:17:31;17.30;80.00
13992;DHT22;7070;53.586;9.692;2023-03-23T13:20:17;17.30;79.70
13992;DHT22;7070;53.586;9.692;2023-03-23T13:22:50;17.30;79.50
13992;DHT22;7070;53.586;9.692;2023-03-23T13:25:23;17.20;79.00
13992;DHT22;7070;53.586;9.692;2023-03-23T13:27:59;17.20;78.70
13992;DHT22;7070;53.586;9.692;2023-03-23T13:30:28;17.20;79.00
13992;DHT22;7070;53.586;9.692;2023-03-23T13:33:02;17.10;78.80
13992;DHT22;7070;53.586;9.692;2023-03-23T13:35:34;16.90;77.50
13992;DHT22;7070;53.586;9.692;2023-03-23T13:38:12;16.80;77.00
13992;DHT22;7070;53.586;9.692;2023-03-23T13:40:43;16.60;76.20
13992;DHT22;7070;53.586;9.692;2023-03-23T13:43:10;16.40;75.60
13992;DHT22;7070;53.586;9.692;2023-03-23T13:45:45;15.90;75.80
13992;DHT22;7070;53.586;9.692;2023-03-23T13:48:21;15.40;77.30
13992;DHT22;7070;53.586;9.692;2023-03-23T13:50:54;14.80;77.70
13992;DHT22;7070;53.586;9.692;2023-03-23T13:53:25;14.30;79.00
13992;DHT22;7070;53.586;9.692;2023-03-23T13:56:07;13.90;80.10
13992;DHT22;7070;53.586;9.692;2023-03-23T13:58:45;13.50;80.80
13992;DHT22;7070;53.586;9.692;2023-03-23T14:01:17;13.20;81.50
13992;DHT22;7070;53.586;9.692;2023-03-23T14:03:47;13.00;82.30
13992;DHT22;7070;53.586;9.692;2023-03-23T14:06:18;12.80;83.20
13992;DHT22;7070;53.586;9.692;2023-03-23T14:08:48;12.70;83.90
13992;DHT22;7070;53.586;9.692;2023-03-23T14:11:20;12.70;84.70
13992;DHT22;7070;53.586;9.692;2023-03-23T14:14:00;12.60;85.30
13992;DHT22;7070;53.586;9.692;2023-03-23T14:16:35;12.50;85.70
13992;DHT22;7070;53.586;9.692;2023-03-23T14:19:04;12.60;86.10
13992;DHT22;7070;53.586;9.692;2023-03-23T14:21:41;12.70;86.40
13992;DHT22;7070;53.586;9.692;2023-03-23T14:24:10;12.70;86.50
13992;DHT22;7070;53.586;9.692;2023-03-23T14:26:38;12.70;86.70
13992;DHT22;7070;53.586;9.692;2023-03-23T14:29:06;12.70;86.80
13992;DHT22;7070;53.586;9.692;2023-03-23T14:31:35;12.80;86.90
13992;DHT22;7070;53.586;9.692;2023-03-23T14:34:04;12.70;86.80
13992;DHT22;7070;53.586;9.692;2023-03-23T14:36:37;12.90;86.80
13992;DHT22;7070;53.586;9.692;2023-03-23T14:39:14;12.80;86.80
13992;DHT22;7070;53.586;9.692;2023-03-23T14:41:42;12.80;87.00
13992;DHT22;7070;53.586;9.692;2023-03-23T14:44:25;12.70;87.00
13992;DHT22;7070;53.586;9.692;2023-03-23T14:46:55;12.70;87.10
13992;DHT22;7070;53.586;9.692;2023-03-23T14:49:28;12.70;87.20
13992;DHT22;7070;53.586;9.692;2023-03-23T14:51:55;12.70;87.60
13992;DHT22;7070;53.586;9.692;2023-03-23T14:54:24;12.70;88.00
13992;DHT22;7070;53.586;9.692;2023-03-23T14:56:52;12.80;88.50
13992;DHT22;7070;53.586;9.692;2023-03-23T14:59:19;12.90;88.90
13992;DHT22;7070;53.586;9.692;2023-03-23T15:01:47;13.00;89.10
13992;DHT22;7070;53.586;9.692;2023-03-23T15:04:20;13.10;89.10
13992;DHT22;7070;53.586;9.692;2023-03-23T15:06:49;13.20;88.90
13992;DHT22;7070;53.586;9.692;2023-03-23T15:09:20;13.30;89.00
13992;DHT22;7070;53.586;9.692;2023-03-23T15:11:54;13.30;89.00
13992;DHT22;7070;53.586;9.692;2023-03-23T15:14:23;13.40;89.00
13992;DHT22;7070;53.586;9.692;2023-03-23T15:16:52;13.40;89.00
13992;DHT22;7070;53.586;9.692;2023-03-23T15:19:23;13.40;89.00
13992;DHT22;7070;53.586;9.692;2023-03-23T15:21:52;13.40;88.80
13992;DHT22;7070;53.586;9.692;2023-03-23T15:24:27;13.30;88.50
13992;DHT22;7070;53.586;9.692;2023-03-23T15:27:10;13.30;88.00
13992;DHT22;7070;53.586;9.692;2023-03-23T15:29:47;13.10;87.80
13992;DHT22;7070;53.586;9.692;2023-03-23T15:32:21;13.00;87.80
13992;DHT22;7070;53.586;9.692;2023-03-23T15:34:49;12.80;87.90
13992;DHT22;7070;53.586;9.692;2023-03-23T15:37:20;12.70;88.20
13992;DHT22;7070;53.586;9.692;2023-03-23T15:39:49;12.50;88.30
13992;DHT22;7070;53.586;9.692;2023-03-23T15:42:25;12.40;88.50
13992;DHT22;7070;53.586;9.692;2023-03-23T15:44:57;12.30;88.60
13992;DHT22;7070;53.586;9.692;2023-03-23T15:47:35;12.20;88.80
13992;DHT22;7070;53.586;9.692;2023-03-23T15:50:10;12.20;89.10
13992;DHT22;7070;53.586;9.692;2023-03-23T15:52:37;12.10;89.30
13992;DHT22;7070;53.586;9.692;2023-03-23T15:55:19;12.00;89.50
13992;DHT22;7070;53.586;9.692;2023-03-23T15:57:46;12.00;89.70
13992;DHT22;7070;53.586;9.692;2023-03-23T16:00:15;11.90;89.70
13992;DHT22;7070;53.586;9.692;2023-03-23T16:02:42;11.90;89.80
13992;DHT22;7070;53.586;9.692;2023-03-23T16:05:11;11.90;89.80
13992;DHT22;7070;53.586;9.692;2023-03-23T16:07:38;11.90;89.90